createdAt,value
2019-03-26T00:00:43.714Z,2.70
2019-03-26T00:03:14.478Z,2.60
2019-03-26T00:05:45.046Z,3.05
2019-03-26T00:08:15.731Z,2.50
2019-03-26T00:10:46.584Z,2.62
2019-03-26T00:13:17.706Z,2.62
2019-03-26T00:15:48.159Z,2.75
2019-03-26T00:18:18.626Z,2.40
2019-03-26T00:20:48.975Z,2.40
2019-03-26T00:23:19.314Z,2.87
2019-03-26T00:25:49.773Z,2.50
2019-03-26T00:28:20.130Z,2.87
2019-03-26T00:30:50.626Z,2.47
2019-03-26T00:33:20.974Z,2.55
2019-03-26T00:35:51.279Z,3.12
2019-03-26T00:38:21.640Z,2.90
2019-03-26T00:40:51.970Z,2.90
2019-03-26T00:43:22.287Z,2.50
2019-03-26T00:45:52.721Z,2.98
2019-03-26T00:48:23.041Z,3.03
2019-03-26T00:50:53.342Z,2.80
2019-03-26T00:53:23.653Z,2.83
2019-03-26T00:55:53.961Z,2.73
2019-03-26T00:58:24.291Z,2.63
2019-03-26T01:00:54.621Z,2.80
2019-03-26T01:03:24.969Z,2.92
2019-03-26T01:05:55.286Z,2.80
2019-03-26T01:08:25.770Z,2.90
2019-03-26T01:10:56.111Z,3.25
2019-03-26T01:13:26.513Z,2.83
2019-03-26T01:15:56.863Z,2.70
2019-03-26T01:18:27.191Z,2.95
2019-03-26T01:20:57.539Z,3.00
2019-03-26T01:23:27.894Z,2.80
2019-03-26T01:25:58.270Z,3.02
2019-03-26T01:28:28.601Z,2.90
2019-03-26T01:30:59.005Z,3.35
2019-03-26T01:33:29.374Z,3.22
2019-03-26T01:35:59.736Z,2.90
2019-03-26T01:38:30.145Z,2.77
2019-03-26T01:41:00.543Z,2.97
2019-03-26T01:43:30.978Z,3.00
2019-03-26T01:46:02.941Z,3.00
2019-03-26T01:48:33.256Z,3.15
2019-03-26T01:51:03.651Z,3.10
2019-03-26T01:53:33.965Z,3.47
2019-03-26T01:56:04.331Z,3.10
2019-03-26T01:58:35.719Z,3.37
2019-03-26T02:01:06.129Z,3.55
2019-03-26T02:03:36.467Z,3.58
2019-03-26T02:06:06.747Z,3.72
2019-03-26T02:08:38.171Z,3.50
2019-03-26T02:11:08.503Z,3.77
2019-03-26T02:13:38.857Z,3.50
2019-03-26T02:16:09.183Z,3.90
2019-03-26T02:18:39.574Z,3.77
2019-03-26T02:21:10.837Z,4.05
2019-03-26T02:23:41.230Z,3.58
2019-03-26T02:26:12.591Z,4.00
2019-03-26T02:28:42.941Z,3.60
2019-03-26T02:31:13.363Z,4.10
2019-03-26T02:33:44.771Z,3.90
2019-03-26T02:36:15.136Z,3.70
2019-03-26T02:38:45.493Z,3.70
2019-03-26T02:41:16.010Z,3.90
2019-03-26T02:43:46.371Z,3.98
2019-03-26T02:46:16.701Z,3.83
2019-03-26T02:48:47.050Z,3.92
2019-03-26T02:51:17.413Z,4.00
2019-03-26T02:53:47.758Z,3.85
2019-03-26T02:56:18.116Z,4.05
2019-03-26T02:58:48.456Z,3.60
2019-03-26T03:01:18.841Z,3.85
2019-03-26T03:03:49.166Z,3.80
2019-03-26T03:06:19.498Z,3.70
2019-03-26T03:08:49.887Z,4.08
2019-03-26T03:11:21.387Z,4.00
2019-03-26T03:13:51.724Z,3.52
2019-03-26T03:16:22.122Z,3.60
2019-03-26T03:18:52.539Z,3.50
2019-03-26T03:21:23.078Z,3.90
2019-03-26T03:23:53.424Z,4.35
2019-03-26T03:26:23.824Z,4.47
2019-03-26T03:28:54.246Z,3.70
2019-03-26T03:31:24.648Z,3.97
2019-03-26T03:33:55.067Z,3.55
2019-03-26T03:36:25.598Z,3.75
2019-03-26T03:38:56.079Z,4.17
2019-03-26T03:41:26.523Z,4.20
2019-03-26T03:43:56.988Z,4.45
2019-03-26T03:46:27.929Z,4.73
2019-03-26T03:48:58.636Z,4.70
2019-03-26T03:51:30.025Z,4.40
2019-03-26T03:54:00.842Z,4.37
2019-03-26T03:56:34.139Z,4.08
2019-03-26T03:59:05.359Z,4.10
2019-03-26T04:01:35.775Z,4.37
2019-03-26T04:04:06.229Z,3.87
2019-03-26T04:06:36.696Z,4.40
2019-03-26T04:09:07.531Z,3.92
2019-03-26T04:11:37.859Z,4.20
2019-03-26T04:14:08.177Z,4.95
2019-03-26T04:16:38.644Z,4.40
2019-03-26T04:19:08.994Z,4.30
2019-03-26T04:21:39.297Z,4.60
2019-03-26T04:24:09.666Z,5.67
2019-03-26T04:26:40.079Z,5.55
2019-03-26T04:29:10.525Z,5.03
2019-03-26T04:31:40.858Z,5.60
2019-03-26T04:34:11.312Z,5.75
2019-03-26T04:36:41.622Z,6.00
2019-03-26T04:39:12.042Z,5.70
2019-03-26T04:41:42.393Z,5.73
2019-03-26T04:44:12.794Z,5.15
2019-03-26T04:46:43.155Z,5.37
2019-03-26T04:49:13.522Z,5.35
2019-03-26T04:51:43.995Z,5.40
2019-03-26T04:54:14.364Z,5.12
2019-03-26T04:56:44.721Z,5.35
2019-03-26T04:59:15.066Z,5.17
2019-03-26T05:01:45.460Z,5.93
2019-03-26T05:04:16.883Z,5.62
2019-03-26T05:06:47.293Z,5.60
2019-03-26T05:09:17.771Z,5.65
2019-03-26T05:11:48.103Z,5.55
2019-03-26T05:14:18.488Z,5.53
2019-03-26T05:16:48.922Z,5.30
2019-03-26T05:19:19.357Z,5.60
2019-03-26T05:21:49.762Z,5.50
2019-03-26T05:24:20.091Z,5.72
2019-03-26T05:26:50.463Z,5.95
2019-03-26T05:29:20.904Z,6.20
2019-03-26T05:31:51.246Z,6.58
2019-03-26T05:34:21.688Z,6.25
2019-03-26T05:36:52.075Z,5.72
2019-03-26T05:39:22.428Z,7.30
2019-03-26T05:41:53.787Z,8.20
2019-03-26T05:44:24.204Z,8.08
2019-03-26T05:46:54.567Z,7.10
2019-03-26T05:49:25.007Z,7.58
2019-03-26T05:51:56.291Z,7.05
2019-03-26T05:54:26.653Z,7.17
2019-03-26T05:56:57.003Z,6.20
2019-03-26T05:59:27.375Z,6.15
2019-03-26T06:01:57.755Z,6.08
2019-03-26T06:04:28.126Z,6.63
2019-03-26T06:07:04.694Z,9.17
2019-03-26T06:09:30.567Z,10.03
2019-03-26T06:12:00.914Z,7.28
2019-03-26T06:14:31.337Z,7.30
2019-03-26T06:17:01.829Z,9.28
2019-03-26T06:19:32.203Z,9.90
2019-03-26T06:22:02.552Z,10.03
2019-03-26T06:24:33.013Z,9.18
2019-03-26T06:27:03.400Z,8.75
2019-03-26T06:29:34.737Z,8.70
2019-03-26T06:32:06.028Z,8.93
2019-03-26T06:34:36.440Z,8.78
2019-03-26T06:37:17.413Z,7.20
2019-03-26T06:39:38.845Z,6.90
2019-03-26T06:42:09.201Z,7.50
2019-03-26T06:44:39.562Z,8.63
2019-03-26T06:47:09.983Z,8.60
2019-03-26T06:49:40.330Z,9.03
2019-03-26T06:52:10.675Z,9.10
2019-03-26T06:54:41.073Z,9.78
2019-03-26T06:57:11.460Z,10.88
2019-03-26T06:59:41.926Z,9.85
2019-03-26T07:02:12.742Z,10.53
2019-03-26T07:04:49.673Z,10.68
2019-03-26T07:07:30.833Z,10.30
2019-03-26T07:09:52.079Z,10.70
2019-03-26T07:12:22.494Z,10.35
2019-03-26T07:14:52.851Z,10.00
2019-03-26T07:17:23.276Z,10.80
2019-03-26T07:19:53.643Z,10.32
2019-03-26T07:22:24.005Z,10.35
2019-03-26T07:24:54.432Z,10.80
2019-03-26T07:27:24.876Z,11.10
2019-03-26T07:29:55.304Z,11.50
2019-03-26T07:32:25.898Z,11.43
2019-03-26T07:34:57.709Z,11.10
2019-03-26T07:37:28.142Z,11.28
2019-03-26T07:39:58.489Z,11.25
2019-03-26T07:42:28.982Z,10.90
2019-03-26T07:44:59.418Z,11.22
2019-03-26T07:47:29.792Z,11.70
2019-03-26T07:50:00.366Z,12.27
2019-03-26T07:52:31.992Z,11.08
2019-03-26T07:55:02.367Z,11.90
2019-03-26T07:57:32.728Z,11.45
2019-03-26T08:00:03.201Z,11.22
2019-03-26T08:02:33.573Z,10.88
2019-03-26T08:05:04.302Z,11.38
2019-03-26T08:07:34.725Z,11.30
2019-03-26T08:10:05.244Z,11.90
2019-03-26T08:12:35.608Z,11.15
2019-03-26T08:15:06.857Z,11.80
2019-03-26T08:17:37.358Z,11.90
2019-03-26T08:20:08.918Z,11.57
2019-03-26T08:22:39.286Z,11.65
2019-03-26T08:25:09.775Z,11.35
2019-03-26T08:27:40.157Z,11.40
2019-03-26T08:30:10.970Z,11.67
2019-03-26T08:32:41.453Z,11.40
2019-03-26T08:35:11.928Z,8.68
2019-03-26T08:37:42.440Z,7.00
2019-03-26T08:40:12.935Z,7.45
2019-03-26T08:42:43.311Z,7.37
2019-03-26T08:45:13.764Z,7.20
2019-03-26T08:47:44.141Z,6.53
2019-03-26T08:50:14.931Z,6.00
2019-03-26T08:52:45.322Z,6.33
2019-03-26T08:55:15.785Z,6.42
2019-03-26T08:57:46.326Z,7.42
2019-03-26T09:00:17.048Z,6.70
2019-03-26T09:02:47.542Z,7.75
2019-03-26T09:05:17.945Z,6.85
2019-03-26T09:07:48.483Z,6.85
2019-03-26T09:10:19.861Z,6.90
2019-03-26T09:12:51.364Z,6.60
2019-03-26T09:15:21.853Z,7.28
2019-03-26T09:17:52.270Z,7.17
2019-03-26T09:20:22.595Z,7.60
2019-03-26T09:22:52.994Z,7.70
2019-03-26T09:25:23.423Z,7.77
2019-03-26T09:27:54.040Z,7.42
2019-03-26T09:30:24.472Z,7.15
2019-03-26T09:32:54.912Z,7.55
2019-03-26T09:35:25.294Z,7.70
2019-03-26T09:37:55.749Z,7.75
2019-03-26T09:40:26.153Z,8.10
2019-03-26T09:42:56.863Z,7.90
2019-03-26T09:45:27.285Z,7.97
2019-03-26T09:47:57.739Z,7.92
2019-03-26T09:50:33.393Z,7.78
2019-03-26T09:53:04.459Z,8.20
2019-03-26T09:55:34.934Z,8.75
2019-03-26T09:58:05.384Z,8.80
2019-03-26T10:00:35.791Z,9.00
2019-03-26T10:03:06.187Z,9.60
2019-03-26T10:05:36.552Z,9.30
2019-03-26T10:08:08.067Z,9.88
2019-03-26T10:10:38.400Z,9.73
2019-03-26T10:13:08.902Z,11.30
2019-03-26T10:15:39.458Z,10.40
2019-03-26T10:18:09.858Z,10.20
2019-03-26T10:20:43.430Z,10.55
2019-03-26T10:23:13.854Z,11.03
2019-03-26T10:25:44.327Z,10.78
2019-03-26T10:28:14.805Z,11.00
2019-03-26T10:30:45.318Z,11.60
2019-03-26T10:33:15.772Z,11.70
2019-03-26T10:35:46.235Z,12.18
2019-03-26T10:38:16.626Z,13.30
2019-03-26T10:40:47.167Z,13.43
2019-03-26T10:43:17.671Z,13.33
2019-03-26T10:45:48.042Z,13.05
2019-03-26T10:48:18.437Z,13.93
2019-03-26T10:50:48.855Z,13.90
2019-03-26T10:53:19.274Z,13.33
2019-03-26T10:55:49.823Z,13.25
2019-03-26T10:58:20.404Z,12.80
2019-03-26T11:00:50.862Z,11.83
2019-03-26T11:03:21.359Z,12.47
2019-03-26T11:05:51.823Z,11.75
2019-03-26T11:08:22.218Z,11.88
2019-03-26T11:10:52.745Z,12.23
2019-03-26T11:13:23.294Z,11.85
2019-03-26T11:15:53.737Z,12.37
2019-03-26T11:18:24.152Z,12.23
2019-03-26T11:21:02.406Z,11.48
2019-03-26T11:23:26.894Z,11.68
2019-03-26T11:25:57.387Z,12.00
2019-03-26T11:28:27.952Z,11.77
2019-03-26T11:30:58.528Z,11.78
2019-03-26T11:33:28.986Z,11.83
2019-03-26T11:35:59.439Z,11.63
2019-03-26T11:38:29.865Z,12.28
2019-03-26T11:41:00.336Z,12.25
2019-03-26T11:43:30.706Z,12.70
2019-03-26T11:46:01.156Z,12.75
2019-03-26T11:48:31.538Z,12.60
2019-03-26T11:51:02.249Z,13.13
2019-03-26T11:53:32.715Z,12.33
2019-03-26T11:56:04.048Z,12.00
2019-03-26T11:58:34.519Z,10.70
2019-03-26T12:01:06.163Z,11.33
2019-03-26T12:03:36.670Z,11.88
2019-03-26T12:06:07.248Z,13.05
2019-03-26T12:08:37.881Z,14.45
2019-03-26T12:11:08.608Z,15.25
2019-03-26T12:13:39.842Z,14.45
2019-03-26T12:16:10.241Z,14.07
2019-03-26T12:18:40.764Z,13.60
2019-03-26T12:21:11.290Z,12.93
2019-03-26T12:23:41.794Z,11.78
2019-03-26T12:26:12.286Z,11.97
2019-03-26T12:28:42.750Z,12.95
2019-03-26T12:31:13.154Z,11.97
2019-03-26T12:33:43.604Z,11.60
2019-03-26T12:36:14.131Z,12.28
2019-03-26T12:38:44.559Z,11.83
2019-03-26T12:41:14.968Z,11.78
2019-03-26T12:43:45.450Z,11.78
2019-03-26T12:46:15.931Z,11.78
2019-03-26T12:48:47.489Z,11.60
2019-03-26T12:51:18.022Z,10.90
2019-03-26T12:53:48.436Z,11.63
2019-03-26T12:56:18.837Z,11.80
2019-03-26T12:58:49.904Z,11.68
2019-03-26T13:01:20.413Z,10.65
2019-03-26T13:03:50.857Z,10.65
2019-03-26T13:06:22.342Z,10.48
2019-03-26T13:08:52.809Z,10.08
2019-03-26T13:11:23.201Z,9.53
2019-03-26T13:13:53.694Z,9.15
2019-03-26T13:16:24.206Z,9.53
2019-03-26T13:18:54.638Z,9.28
2019-03-26T13:21:25.143Z,9.33
2019-03-26T13:23:55.694Z,9.10
2019-03-26T13:26:26.171Z,8.80
2019-03-26T13:28:56.661Z,7.95
2019-03-26T13:31:27.057Z,7.42
2019-03-26T13:33:57.403Z,7.45
2019-03-26T13:36:27.882Z,7.40
2019-03-26T13:38:58.321Z,5.87
2019-03-26T13:41:28.716Z,5.15
2019-03-26T13:43:59.237Z,4.90
2019-03-26T13:46:29.910Z,4.67
2019-03-26T13:49:00.458Z,4.60
2019-03-26T13:51:30.921Z,5.60
2019-03-26T13:54:01.365Z,5.40
2019-03-26T13:56:31.813Z,4.83
2019-03-26T13:59:02.261Z,4.73
2019-03-26T14:01:32.627Z,4.87
2019-03-26T14:04:03.008Z,4.40
2019-03-26T14:06:33.391Z,4.20
2019-03-26T14:09:05.511Z,4.03
2019-03-26T14:11:36.252Z,4.37
2019-03-26T14:14:07.795Z,3.60
2019-03-26T14:16:38.215Z,3.83
2019-03-26T14:19:08.580Z,3.77
2019-03-26T14:21:38.973Z,3.92
2019-03-26T14:24:09.345Z,3.75
2019-03-26T14:26:39.801Z,3.30
2019-03-26T14:29:10.400Z,3.40
2019-03-26T14:31:40.833Z,3.40
2019-03-26T14:34:11.281Z,3.70
2019-03-26T14:36:41.647Z,3.70
2019-03-26T14:39:12.322Z,3.95
2019-03-26T14:41:42.748Z,3.20
2019-03-26T14:44:13.232Z,3.52
2019-03-26T14:46:43.632Z,3.58
2019-03-26T14:49:14.158Z,3.10
2019-03-26T14:51:44.607Z,3.72
2019-03-26T14:54:14.979Z,3.27
2019-03-26T14:56:45.352Z,3.20
2019-03-26T14:59:15.786Z,3.17
2019-03-26T15:01:46.178Z,3.37
2019-03-26T15:04:16.590Z,3.47
2019-03-26T15:06:46.938Z,3.30
2019-03-26T15:09:17.342Z,3.27
2019-03-26T15:11:47.706Z,3.40
2019-03-26T15:14:18.081Z,4.22
2019-03-26T15:16:48.438Z,4.00
2019-03-26T15:19:18.822Z,4.28
2019-03-26T15:21:49.242Z,4.08
2019-03-26T15:24:20.694Z,3.98
2019-03-26T15:26:51.192Z,4.33
2019-03-26T15:29:21.711Z,4.10
2019-03-26T15:31:52.127Z,4.05
2019-03-26T15:34:35.409Z,3.90
2019-03-26T15:36:54.683Z,4.10
2019-03-26T15:39:25.117Z,4.10
2019-03-26T15:41:55.426Z,4.20
2019-03-26T15:44:25.842Z,4.37
2019-03-26T15:46:56.195Z,4.27
2019-03-26T15:49:26.565Z,4.23
2019-03-26T15:51:56.977Z,4.70
2019-03-26T15:54:27.452Z,4.67
2019-03-26T15:56:57.805Z,4.80
2019-03-26T15:59:28.239Z,5.05
2019-03-26T16:01:59.590Z,5.30
2019-03-26T16:04:30.008Z,4.78
2019-03-26T16:07:00.427Z,5.30
2019-03-26T16:09:31.878Z,5.97
2019-03-26T16:12:02.517Z,5.83
2019-03-26T16:14:32.967Z,6.17
2019-03-26T16:17:03.543Z,6.40
2019-03-26T16:19:36.472Z,6.37
2019-03-26T16:22:06.103Z,6.92
2019-03-26T16:24:36.452Z,6.60
2019-03-26T16:27:06.918Z,7.30
2019-03-26T16:29:37.412Z,6.60
2019-03-26T16:32:07.782Z,6.77
2019-03-26T16:34:38.234Z,6.87
2019-03-26T16:37:08.627Z,6.90
2019-03-26T16:39:39.085Z,7.30
2019-03-26T16:42:09.526Z,7.85
2019-03-26T16:44:39.995Z,7.50
2019-03-26T16:47:10.319Z,6.90
2019-03-26T16:49:40.724Z,6.83
2019-03-26T16:52:11.175Z,7.37
2019-03-26T16:54:41.625Z,6.80
2019-03-26T16:57:12.009Z,6.87
2019-03-26T16:59:42.423Z,7.00
2019-03-26T17:02:12.839Z,7.20
2019-03-26T17:04:46.595Z,6.63
2019-03-26T17:07:15.548Z,7.40
2019-03-26T17:09:45.934Z,6.92
2019-03-26T17:12:17.458Z,6.87
2019-03-26T17:14:47.866Z,7.10
2019-03-26T17:17:19.350Z,6.63
2019-03-26T17:19:49.698Z,7.10
2019-03-26T17:22:20.196Z,6.80
2019-03-26T17:24:51.806Z,6.50
2019-03-26T17:27:22.294Z,6.42
2019-03-26T17:29:52.674Z,6.55
2019-03-26T17:32:23.250Z,6.70
2019-03-26T17:34:53.685Z,5.65
2019-03-26T17:37:24.162Z,5.95
2019-03-26T17:39:54.670Z,5.75
2019-03-26T17:42:25.021Z,5.90
2019-03-26T17:44:58.261Z,5.40
2019-03-26T17:47:27.912Z,5.70
2019-03-26T17:49:58.300Z,5.62
2019-03-26T17:52:28.694Z,5.70
2019-03-26T17:54:59.067Z,5.72
2019-03-26T17:57:29.484Z,6.05
2019-03-26T17:59:59.842Z,6.15
2019-03-26T18:02:30.341Z,6.25
2019-03-26T18:05:00.789Z,5.78
2019-03-26T18:07:31.329Z,5.85
2019-03-26T18:10:01.851Z,5.83
2019-03-26T18:12:33.396Z,6.20
2019-03-26T18:15:03.926Z,6.67
2019-03-26T18:17:34.404Z,6.25
2019-03-26T18:20:05.241Z,5.70
2019-03-26T18:22:35.803Z,6.62
2019-03-26T18:25:07.524Z,5.87
2019-03-26T18:27:38.107Z,6.37
2019-03-26T18:30:17.828Z,6.17
2019-03-26T18:32:48.322Z,6.40
2019-03-26T18:35:18.837Z,6.20
2019-03-26T18:37:49.374Z,5.60
2019-03-26T18:40:22.908Z,5.92
2019-03-26T18:42:53.399Z,6.22
2019-03-26T18:45:23.978Z,5.87
2019-03-26T18:47:54.372Z,5.87
2019-03-26T18:50:24.865Z,6.53
2019-03-26T18:52:55.258Z,6.15
2019-03-26T18:55:25.903Z,6.67
2019-03-26T18:57:56.634Z,6.33
2019-03-26T19:00:34.835Z,6.90
2019-03-26T19:03:06.237Z,6.75
2019-03-26T19:05:37.915Z,6.35
2019-03-26T19:08:08.577Z,6.97
2019-03-26T19:10:39.204Z,7.22
2019-03-26T19:13:19.083Z,8.08
2019-03-26T19:15:42.128Z,8.28
2019-03-26T19:18:12.582Z,8.33
2019-03-26T19:20:43.012Z,8.83
2019-03-26T19:23:13.485Z,8.50
2019-03-26T19:25:44.142Z,9.73
2019-03-26T19:28:14.646Z,9.85
2019-03-26T19:30:45.186Z,9.38
2019-03-26T19:33:15.613Z,10.00
2019-03-26T19:35:45.983Z,9.40
2019-03-26T19:38:16.522Z,10.23
2019-03-26T19:40:47.037Z,10.53
2019-03-26T19:43:17.540Z,11.40
2019-03-26T19:45:48.054Z,11.35
2019-03-26T19:48:18.906Z,12.03
2019-03-26T19:50:49.509Z,11.48
2019-03-26T19:53:22.091Z,12.83
2019-03-26T19:55:53.914Z,11.85
2019-03-26T19:58:25.910Z,12.70
2019-03-26T20:00:56.476Z,13.25
2019-03-26T20:03:28.521Z,13.55
2019-03-26T20:06:12.334Z,12.88
2019-03-26T20:08:31.339Z,13.72
2019-03-26T20:11:01.918Z,13.30
2019-03-26T20:13:32.627Z,14.13
2019-03-26T20:16:03.387Z,13.55
2019-03-26T20:18:33.982Z,14.25
2019-03-26T20:21:04.715Z,14.00
2019-03-26T20:23:35.230Z,14.10
2019-03-26T20:26:05.759Z,14.00
2019-03-26T20:28:36.299Z,15.08
2019-03-26T20:31:06.757Z,13.65
2019-03-26T20:33:37.131Z,14.03
2019-03-26T20:36:07.539Z,15.18
2019-03-26T20:38:38.064Z,14.85
2019-03-26T20:41:08.558Z,15.45
2019-03-26T20:43:39.150Z,15.68
2019-03-26T20:46:09.786Z,15.25
2019-03-26T20:48:40.301Z,15.85
2019-03-26T20:51:10.850Z,15.10
2019-03-26T20:53:41.532Z,14.98
2019-03-26T20:56:12.108Z,14.90
2019-03-26T20:58:42.985Z,15.15
2019-03-26T21:01:13.490Z,15.38
2019-03-26T21:03:44.168Z,14.70
2019-03-26T21:06:14.566Z,15.80
2019-03-26T21:08:44.990Z,15.03
2019-03-26T21:11:15.516Z,15.78
2019-03-26T21:13:51.068Z,16.40
2019-03-26T21:16:18.298Z,15.90
2019-03-26T21:18:48.780Z,15.53
2019-03-26T21:21:19.185Z,15.98
2019-03-26T21:23:49.626Z,15.38
2019-03-26T21:26:20.027Z,15.60
2019-03-26T21:28:50.538Z,15.28
2019-03-26T21:31:21.069Z,15.63
2019-03-26T21:33:51.579Z,15.57
2019-03-26T21:36:22.142Z,15.38
2019-03-26T21:38:54.143Z,15.40
2019-03-26T21:41:24.562Z,15.43
2019-03-26T21:44:04.052Z,15.28
2019-03-26T21:46:27.127Z,15.93
2019-03-26T21:48:57.522Z,15.83
2019-03-26T21:51:29.024Z,15.93
2019-03-26T21:53:59.534Z,16.40
2019-03-26T21:56:30.025Z,16.48
2019-03-26T21:59:00.532Z,15.90
2019-03-26T22:01:31.015Z,17.48
2019-03-26T22:04:01.574Z,17.37
2019-03-26T22:06:31.955Z,16.55
2019-03-26T22:09:02.666Z,16.37
2019-03-26T22:11:34.622Z,17.17
2019-03-26T22:14:17.322Z,18.42
2019-03-26T22:16:37.256Z,17.87
2019-03-26T22:19:07.649Z,18.92
2019-03-26T22:21:39.213Z,19.12
2019-03-26T22:24:09.530Z,19.65
2019-03-26T22:26:39.876Z,19.62
2019-03-26T22:29:10.378Z,19.17
2019-03-26T22:31:40.877Z,19.20
2019-03-26T22:34:11.409Z,18.73
2019-03-26T22:36:41.899Z,19.73
2019-03-26T22:39:12.361Z,19.80
2019-03-26T22:41:42.734Z,20.27
2019-03-26T22:44:13.228Z,20.08
2019-03-26T22:46:43.636Z,18.73
2019-03-26T22:49:14.109Z,18.77
2019-03-26T22:51:44.586Z,19.07
2019-03-26T22:54:14.972Z,18.37
2019-03-26T22:56:45.356Z,18.95
2019-03-26T22:59:15.722Z,19.15
2019-03-26T23:01:46.153Z,19.10
2019-03-26T23:04:19.782Z,17.45
2019-03-26T23:06:48.726Z,17.00
2019-03-26T23:09:19.197Z,16.48
2019-03-26T23:11:50.059Z,16.87
2019-03-26T23:14:20.442Z,16.55
2019-03-26T23:16:50.843Z,15.88
2019-03-26T23:19:21.266Z,16.57
2019-03-26T23:21:51.737Z,15.63
2019-03-26T23:24:22.209Z,15.65
2019-03-26T23:26:52.660Z,15.93
2019-03-26T23:29:23.115Z,17.05
2019-03-26T23:31:53.517Z,17.27
2019-03-26T23:34:23.893Z,17.32
2019-03-26T23:36:54.226Z,16.52
2019-03-26T23:39:24.666Z,17.10
2019-03-26T23:41:55.134Z,15.90
2019-03-26T23:44:26.603Z,16.02
2019-03-26T23:46:57.095Z,16.00
2019-03-26T23:49:27.520Z,15.38
2019-03-26T23:51:58.021Z,15.20
2019-03-26T23:54:28.468Z,14.60
2019-03-26T23:56:58.867Z,14.38
2019-03-26T23:59:29.273Z,14.90
